Time;durP1;ratioP1;P1;durP2;ratioP2;P2;SDS_P1;SDS_P2;PMS_P1;PMS_P2;Temp;Humidity;BMP_temperature;BMP_pressure;BME280_temperature;BME280_humidity;BME280_pressure;Samples;Min_cycle;Max_cycle;Signal;HPM_P1;HPM_P2
2023/08/25 00:02:53;;;;;;;18.98;7.35;;;31.60;21.90;;;;;;20920883;28;20053;-58
2023/08/25 00:12:54;;;;;;;18.00;4.90;;;31.50;22.30;;;;;;20921454;28;20045;-57
2023/08/25 00:22:55;;;;;;;16.48;4.60;;;31.30;21.90;;;;;;20918674;28;20080;-57
2023/08/25 00:32:55;;;;;;;23.83;4.65;;;31.20;22.00;;;;;;20918875;28;20074;-57
2023/08/25 00:42:56;;;;;;;23.08;6.43;;;31.00;22.30;;;;;;20919099;28;20044;-57
2023/08/25 00:52:57;;;;;;;23.70;5.93;;;30.90;22.40;;;;;;20918102;28;20049;-57
2023/08/25 01:02:58;;;;;;;15.13;4.53;;;30.80;22.40;;;;;;20916838;28;20538;-57
2023/08/25 01:13:10;;;;;;;22.20;5.00;;;30.70;22.20;;;;;;20915128;28;20049;-58
2023/08/25 01:23:35;;;;;;;19.42;4.85;;;30.60;22.60;;;;;;20913655;28;20060;-58
2023/08/25 01:33:35;;;;;;;16.27;5.43;;;30.60;22.10;;;;;;20913321;28;20067;-57
2023/08/25 01:43:40;;;;;;;21.75;5.80;;;30.60;22.20;;;;;;20912685;28;20057;-58
2023/08/25 01:53:44;;;;;;;18.67;4.90;;;30.40;22.30;;;;;;20912900;28;20037;-56
2023/08/25 02:03:45;;;;;;;19.48;4.75;;;30.30;22.40;;;;;;20911014;28;20041;-58
2023/08/25 02:13:46;;;;;;;21.77;6.55;;;30.20;22.40;;;;;;20911976;28;20102;-58
2023/08/25 02:23:47;;;;;;;23.13;5.53;;;30.10;22.60;;;;;;20910351;28;20137;-57
2023/08/25 02:33:47;;;;;;;18.42;5.72;;;29.90;22.80;;;;;;20910275;28;20479;-57
2023/08/25 02:43:48;;;;;;;25.38;6.95;;;29.80;23.30;;;;;;20911362;28;20155;-59
2023/08/25 02:53:49;;;;;;;25.00;7.10;;;29.70;22.90;;;;;;20923842;28;20052;-57
2023/08/25 03:03:50;;;;;;;20.42;5.68;;;29.70;22.70;;;;;;20924816;28;20048;-58
2023/08/25 03:13:52;;;;;;;26.80;6.88;;;29.60;22.80;;;;;;20923924;28;20110;-57
2023/08/25 03:23:53;;;;;;;19.95;6.28;;;29.60;23.10;;;;;;20924851;28;20045;-57
2023/08/25 03:33:54;;;;;;;22.05;5.70;;;29.40;23.30;;;;;;20922673;28;20060;-58
2023/08/25 03:43:54;;;;;;;18.35;5.28;;;29.20;23.20;;;;;;20923125;28;20056;-57
2023/08/25 03:53:55;;;;;;;24.38;5.90;;;29.10;23.30;;;;;;20922103;28;20053;-57
2023/08/25 04:03:56;;;;;;;25.13;5.45;;;29.10;23.60;;;;;;20919214;28;20090;-58
2023/08/25 04:13:57;;;;;;;22.27;5.88;;;29.10;23.60;;;;;;20921539;28;20041;-58
2023/08/25 04:23:57;;;;;;;23.55;6.05;;;29.00;23.70;;;;;;20919594;28;20104;-58
2023/08/25 04:33:58;;;;;;;26.33;7.13;;;28.80;24.00;;;;;;20920480;28;20517;-57
2023/08/25 04:43:59;;;;;;;25.27;6.03;;;28.70;24.40;;;;;;20919296;28;20124;-57
2023/08/25 04:53:59;;;;;;;21.45;5.57;;;28.40;25.10;;;;;;20918462;28;20190;-58
2023/08/25 05:04:00;;;;;;;25.75;7.70;;;28.20;25.50;;;;;;20917505;28;20194;-57
2023/08/25 05:14:01;;;;;;;25.70;6.40;;;28.10;26.30;;;;;;20916224;28;20171;-57
2023/08/25 05:24:21;;;;;;;;;;;27.80;26.70;;;;;;20916491;28;20094;-57
2023/08/25 05:34:22;;;;;;;14.63;5.10;;;27.60;27.30;;;;;;20916028;28;20397;-57
2023/08/25 05:44:23;;;;;;;;;;;27.50;27.90;;;;;;20914960;28;20116;-57
2023/08/25 05:54:23;;;;;;;17.13;5.57;;;27.10;28.20;;;;;;20914115;28;19967;-57
2023/08/25 06:04:25;;;;;;;15.53;5.43;;;27.10;28.70;;;;;;20911910;28;20116;-57
2023/08/25 06:14:26;;;;;;;22.90;6.72;;;27.10;28.70;;;;;;20912735;28;20293;-56
2023/08/25 06:24:27;;;;;;;22.93;5.53;;;27.10;28.80;;;;;;20921273;28;20045;-58
2023/08/25 06:34:28;;;;;;;17.33;5.15;;;27.10;29.10;;;;;;20928133;28;20056;-58
2023/08/25 06:44:29;;;;;;;19.53;5.70;;;27.00;29.10;;;;;;20928492;28;20045;-58
2023/08/25 06:54:30;;;;;;;;;;;27.10;29.30;;;;;;20927736;28;20044;-58
2023/08/25 07:04:31;;;;;;;24.23;6.30;;;27.10;29.10;;;;;;20926529;28;19920;-59
2023/08/25 07:14:32;;;;;;;21.30;4.95;;;27.40;28.70;;;;;;20924635;28;20049;-57
2023/08/25 07:24:33;;;;;;;25.08;6.03;;;27.90;27.90;;;;;;20925296;28;20119;-57
2023/08/25 07:34:33;;;;;;;;;;;28.30;26.80;;;;;;20922835;28;20072;-58
2023/08/25 07:44:37;;;;;;;18.77;5.30;;;28.80;27.00;;;;;;20923961;28;19971;-57
2023/08/25 07:54:38;;;;;;;23.00;6.22;;;29.20;26.50;;;;;;20922284;28;20478;-58
2023/08/25 08:04:39;;;;;;;31.13;7.93;;;29.70;25.60;;;;;;20921600;28;20153;-58
2023/08/25 08:14:39;;;;;;;29.15;6.97;;;30.10;25.20;;;;;;20921348;28;20124;-56
2023/08/25 08:24:47;;;;;;;24.15;6.80;;;30.40;24.80;;;;;;20919216;28;20091;-57
2023/08/25 08:34:49;;;;;;;22.67;5.53;;;30.70;24.40;;;;;;20918641;28;20457;-58
2023/08/25 08:44:50;;;;;;;22.83;5.97;;;31.00;24.20;;;;;;20916425;28;20060;-57
2023/08/25 08:54:51;;;;;;;130.23;18.83;;;31.20;24.20;;;;;;20917587;28;20041;-58
2023/08/25 09:04:53;;;;;;;25.60;6.93;;;31.50;23.40;;;;;;20916764;28;20102;-58
2023/08/25 09:14:54;;;;;;;26.23;6.13;;;32.00;22.90;;;;;;20916068;28;20044;-58
2023/08/25 09:24:58;;;;;;;25.92;8.05;;;32.20;22.00;;;;;;20914478;28;20118;-58
2023/08/25 09:35:21;;;;;;;19.70;5.53;;;32.60;21.90;;;;;;20914032;28;20064;-60
2023/08/25 09:45:25;;;;;;;17.48;4.30;;;32.90;20.60;;;;;;20914080;28;20045;-61
2023/08/25 09:55:26;;;;;;;16.83;5.45;;;33.10;20.60;;;;;;20913476;28;20045;-58
2023/08/25 10:05:28;;;;;;;21.70;5.20;;;33.30;21.60;;;;;;20912028;28;20044;-59
2023/08/25 10:15:30;;;;;;;16.88;4.63;;;33.60;21.40;;;;;;20912603;28;20088;-58
2023/08/25 10:25:32;;;;;;;17.85;4.85;;;33.80;21.10;;;;;;20911673;28;20074;-58
2023/08/25 10:35:44;;;;;;;18.30;5.22;;;33.80;21.00;;;;;;20910886;28;20053;-57
2023/08/25 10:45:50;;;;;;;16.15;5.47;;;34.00;21.30;;;;;;20911943;28;20110;-57
2023/08/25 10:55:50;;;;;;;21.55;6.10;;;34.10;20.70;;;;;;20911763;28;20124;-57
2023/08/25 11:05:51;;;;;;;19.40;5.18;;;34.30;20.30;;;;;;20910308;28;20183;-57
2023/08/25 11:15:52;;;;;;;14.18;5.03;;;34.50;19.90;;;;;;20926182;28;20475;-58
2023/08/25 11:25:53;;;;;;;20.55;4.60;;;34.60;19.40;;;;;;20925754;28;20071;-58
2023/08/25 11:35:54;;;;;;;14.93;4.45;;;35.00;19.70;;;;;;20925683;28;20057;-58
2023/08/25 11:45:55;;;;;;;15.20;4.15;;;35.40;18.70;;;;;;20923343;28;20049;-58
2023/08/25 11:56:03;;;;;;;15.52;4.28;;;35.40;18.10;;;;;;20922920;28;20048;-57
2023/08/25 12:06:05;;;;;;;15.07;4.13;;;35.40;18.50;;;;;;20921544;28;20394;-58
2023/08/25 12:16:06;;;;;;;15.07;5.05;;;35.60;18.00;;;;;;20920116;28;20083;-57
2023/08/25 12:26:14;;;;;;;21.33;5.25;;;35.80;18.00;;;;;;20919571;28;20528;-57
2023/08/25 12:36:15;;;;;;;14.17;3.97;;;35.80;18.00;;;;;;20920612;28;20052;-60
2023/08/25 12:46:18;;;;;;;14.55;4.30;;;35.90;17.60;;;;;;20919172;28;20128;-57
2023/08/25 12:56:19;;;;;;;16.58;4.25;;;36.10;18.20;;;;;;20918812;28;20060;-58
2023/08/25 13:06:19;;;;;;;15.10;4.18;;;36.10;17.70;;;;;;20917622;28;20402;-58
2023/08/25 13:16:20;;;;;;;11.77;3.63;;;36.40;17.30;;;;;;20916149;28;20045;-57
2023/08/25 13:26:21;;;;;;;20.33;8.77;;;36.60;17.70;;;;;;20914002;28;20392;-57
2023/08/25 13:36:23;;;;;;;16.83;4.55;;;36.70;17.50;;;;;;20913558;28;20136;-58
2023/08/25 13:46:23;;;;;;;14.77;3.90;;;36.70;17.60;;;;;;20913067;28;20041;-57
2023/08/25 13:56:24;;;;;;;16.10;4.35;;;37.10;17.60;;;;;;20914010;28;20505;-59
2023/08/25 14:06:25;;;;;;;16.55;4.50;;;37.10;17.60;;;;;;20913631;28;20079;-56
2023/08/25 14:16:26;;;;;;;19.87;3.87;;;37.20;17.80;;;;;;20911521;28;20048;-58
2023/08/25 14:26:27;;;;;;;16.73;4.78;;;37.40;17.50;;;;;;20913025;28;20298;-59
2023/08/25 14:36:28;;;;;;;19.25;4.32;;;37.30;17.60;;;;;;20911248;28;20103;-58
2023/08/25 14:46:39;;;;;;;18.20;4.05;;;37.30;17.70;;;;;;20920573;28;20494;-59
2023/08/25 14:56:40;;;;;;;16.25;4.50;;;37.30;17.60;;;;;;20927941;28;20132;-57
2023/08/25 15:06:41;;;;;;;14.73;4.35;;;37.50;17.60;;;;;;20925669;28;20462;-58
2023/08/25 15:16:41;;;;;;;18.42;4.00;;;37.50;17.40;;;;;;20924804;28;20040;-57
2023/08/25 15:26:42;;;;;;;20.00;4.82;;;37.50;17.30;;;;;;20925351;28;20546;-59
2023/08/25 15:36:43;;;;;;;17.20;4.35;;;37.70;17.10;;;;;;20926041;28;20063;-57
2023/08/25 15:46:44;;;;;;;12.27;3.47;;;37.50;17.30;;;;;;20923882;28;20045;-58
2023/08/25 15:56:44;;;;;;;22.92;4.28;;;37.20;17.30;;;;;;20921297;28;20044;-58
2023/08/25 16:06:45;;;;;;;15.50;3.60;;;37.00;17.60;;;;;;20920991;28;20041;-57
2023/08/25 16:16:46;;;;;;;14.82;4.70;;;37.00;17.80;;;;;;20921725;28;20278;-60
2023/08/25 16:26:47;;;;;;;20.48;4.60;;;36.80;17.80;;;;;;20919556;28;20045;-57
2023/08/25 16:36:47;;;;;;;20.13;4.72;;;36.80;17.80;;;;;;20919265;28;20048;-57
2023/08/25 16:46:48;;;;;;;15.85;4.50;;;36.60;17.90;;;;;;20919211;28;20082;-57
2023/08/25 16:56:49;;;;;;;12.83;4.30;;;36.60;17.80;;;;;;20918653;28;20056;-57
2023/08/25 17:06:50;;;;;;;21.52;4.20;;;36.50;17.70;;;;;;20916851;28;20297;-57
2023/08/25 17:16:50;;;;;;;17.23;4.13;;;36.30;17.50;;;;;;20916109;28;20045;-58
2023/08/25 17:26:51;;;;;;;15.40;3.85;;;36.30;17.70;;;;;;20915505;28;20048;-58
2023/08/25 17:36:52;;;;;;;14.20;4.13;;;36.10;17.80;;;;;;20912815;28;20072;-58
2023/08/25 17:46:52;;;;;;;20.00;3.72;;;36.00;18.10;;;;;;20909770;28;20045;-58
2023/08/25 17:56:53;;;;;;;11.88;3.72;;;35.80;17.80;;;;;;20909108;28;20040;-57
2023/08/25 18:06:54;;;;;;;14.68;4.07;;;35.60;18.20;;;;;;20910107;28;20478;-57
2023/08/25 18:16:55;;;;;;;16.13;5.35;;;35.50;18.30;;;;;;20908419;28;20080;-57
2023/08/25 18:26:56;;;;;;;16.27;5.20;;;35.50;18.50;;;;;;20907986;28;20041;-57
2023/08/25 18:36:56;;;;;;;10.47;3.87;;;35.20;18.40;;;;;;20868111;28;1247711;-57
2023/08/25 18:46:57;;;;;;;19.40;4.53;;;35.10;18.90;;;;;;20910604;28;20817;-57
2023/08/25 18:56:59;;;;;;;24.55;4.45;;;34.80;18.90;;;;;;20911401;28;20116;-58
2023/08/25 19:06:59;;;;;;;20.95;5.20;;;34.60;19.10;;;;;;20911419;28;20053;-59
2023/08/25 19:17:00;;;;;;;14.52;4.78;;;34.50;19.30;;;;;;20909439;28;20048;-58
2023/08/25 19:27:01;;;;;;;20.27;4.55;;;34.30;19.60;;;;;;20911439;28;20081;-57
2023/08/25 19:37:02;;;;;;;18.25;4.05;;;34.10;19.60;;;;;;20926054;28;20061;-59
2023/08/25 19:47:03;;;;;;;16.17;4.43;;;33.90;19.80;;;;;;20922683;28;20044;-57
2023/08/25 19:57:03;;;;;;;23.08;5.15;;;33.80;20.10;;;;;;20923814;28;20494;-60
2023/08/25 20:07:04;;;;;;;21.98;6.10;;;33.60;20.10;;;;;;20921742;28;20040;-57
2023/08/25 20:17:05;;;;;;;19.85;4.88;;;33.50;20.30;;;;;;20922136;28;20527;-57
2023/08/25 20:27:06;;;;;;;18.80;5.03;;;33.40;20.30;;;;;;20919676;28;20091;-58
2023/08/25 20:37:07;;;;;;;13.68;4.65;;;33.30;20.30;;;;;;20921522;28;20065;-58
2023/08/25 20:47:08;;;;;;;21.20;5.25;;;33.10;20.60;;;;;;20918649;28;20041;-58
2023/08/25 20:57:09;;;;;;;24.48;5.97;;;32.80;20.90;;;;;;20917820;28;20127;-58
2023/08/25 21:07:10;;;;;;;18.08;5.03;;;32.60;21.10;;;;;;20918356;28;20125;-58
2023/08/25 21:17:11;;;;;;;17.33;4.50;;;32.50;21.20;;;;;;20916510;28;20048;-57
2023/08/25 21:27:12;;;;;;;15.90;3.85;;;32.40;21.60;;;;;;20916805;28;20128;-57
2023/08/25 21:37:13;;;;;;;15.98;4.85;;;32.10;21.80;;;;;;20917444;28;20053;-58
2023/08/25 21:47:14;;;;;;;14.15;5.00;;;32.10;22.00;;;;;;20914957;28;20124;-58
2023/08/25 21:57:15;;;;;;;21.90;5.03;;;32.10;22.10;;;;;;20914759;28;20056;-58
2023/08/25 22:07:16;;;;;;;20.45;6.25;;;32.00;22.30;;;;;;20914308;28;20045;-58
2023/08/25 22:17:16;;;;;;;15.27;4.25;;;31.80;22.80;;;;;;20912152;28;20041;-58
2023/08/25 22:27:17;;;;;;;18.83;4.85;;;31.60;23.00;;;;;;20912838;28;20089;-58
2023/08/25 22:37:18;;;;;;;15.05;4.28;;;31.50;23.00;;;;;;20912800;28;20051;-58
2023/08/25 22:47:19;;;;;;;16.33;5.03;;;31.40;23.10;;;;;;20912354;28;20132;-59
2023/08/25 22:57:19;;;;;;;16.73;5.57;;;31.20;23.40;;;;;;20912038;28;20426;-58
2023/08/25 23:07:20;;;;;;;17.52;5.45;;;31.10;23.60;;;;;;20920896;28;20128;-57
2023/08/25 23:17:21;;;;;;;19.55;5.47;;;31.10;23.60;;;;;;20927034;28;20151;-57
2023/08/25 23:27:21;;;;;;;12.27;3.75;;;31.10;23.50;;;;;;20925921;28;20131;-57
2023/08/25 23:37:22;;;;;;;14.27;5.00;;;31.20;23.40;;;;;;20925781;28;20422;-56
2023/08/25 23:47:23;;;;;;;16.98;5.25;;;31.30;23.40;;;;;;20924754;28;20045;-57
2023/08/25 23:57:24;;;;;;;17.23;5.35;;;31.10;23.60;;;;;;20924089;28;20045;-57
